Time;durP1;ratioP1;P1;durP2;ratioP2;P2;SDS_P1;SDS_P2;PMS_P1;PMS_P2;Temp;Humidity;BMP_temperature;BMP_pressure;BME280_temperature;BME280_humidity;BME280_pressure;Samples;Min_cycle;Max_cycle;Signal;HPM_P1;HPM_P2
2019/06/17 00:01:45;;;;;;;4.3;2.1;;;;;;;16.4;78.70508;943.074;;;;
2019/06/17 00:04:17;;;;;;;4.1;2.7;;;;;;;16.26;78.03223;943.1238;;;;
2019/06/17 00:06:51;;;;;;;7.4;2.9;;;;;;;16.26;77.14063;943.1158;;;;
2019/06/17 00:09:13;;;;;;;4.2;2.8;;;;;;;15.99;79;943.0544;;;;
2019/06/17 00:11:50;;;;;;;5;2.6;;;;;;;15.97;80.25684;942.9196;;;;
2019/06/17 00:14:17;;;;;;;5;2.6;;;;;;;15.86;80.65332;942.9231;;;;
2019/06/17 00:16:43;;;;;;;3.2;2.4;;;;;;;15.78;81.03125;942.9055;;;;
2019/06/17 00:19:12;;;;;;;3.9;2.6;;;;;;;15.92;80.25879;942.9125;;;;
2019/06/17 00:21:47;;;;;;;4.2;2.5;;;;;;;15.98;79.6709;943.0078;;;;
2019/06/17 00:24:11;;;;;;;4.6;2.6;;;;;;;15.98;79.13867;943.0552;;;;
2019/06/17 00:26:44;;;;;;;4.1;2.6;;;;;;;15.88;79.75488;943.1649;;;;
2019/06/17 00:29:11;;;;;;;3.3;2.5;;;;;;;15.85;80.53613;943.0742;;;;
2019/06/17 00:31:37;;;;;;;5.8;2.4;;;;;;;16.01;80.125;943.027;;;;
2019/06/17 00:34:08;;;;;;;5.7;3.7;;;;;;;15.72;81.14844;942.9931;;;;
2019/06/17 00:36:34;;;;;;;4;2.6;;;;;;;15.74;81.07031;942.9738;;;;
2019/06/17 00:39:07;;;;;;;3.3;2.4;;;;;;;15.98;80.28223;942.9099;;;;
2019/06/17 00:41:36;;;;;;;4.6;2.3;;;;;;;16.05;79.54395;942.8513;;;;
2019/06/17 00:44:12;;;;;;;5.1;2.2;;;;;;;16.06;79.7998;942.7941;;;;
2019/06/17 00:46:43;;;;;;;5.6;2.5;;;;;;;16;79.61621;942.8303;;;;
2019/06/17 00:49:15;;;;;;;4.6;2.7;;;;;;;16.05;78.83984;942.7821;;;;
2019/06/17 00:51:51;;;;;;;5.7;2.7;;;;;;;15.95;78.4043;942.7333;;;;
2019/06/17 00:54:25;;;;;;;5.3;2.9;;;;;;;15.9;78.83398;942.8331;;;;
2019/06/17 00:56:58;;;;;;;4.5;2.5;;;;;;;15.93;79.41797;942.8892;;;;
2019/06/17 00:59:29;;;;;;;3.7;2.7;;;;;;;15.9;79.56152;942.8201;;;;
2019/06/17 01:02:04;;;;;;;5.7;2.8;;;;;;;15.78;80.19922;942.7472;;;;
2019/06/17 01:04:53;;;;;;;4.3;2.3;;;;;;;15.59;80.90234;942.7251;;;;
2019/06/17 01:07:31;;;;;;;4.8;2.2;;;;;;;15.85;79.96973;942.6156;;;;
2019/06/17 01:10:02;;;;;;;4.9;2.4;;;;;;;15.81;79.76465;942.6114;;;;
2019/06/17 01:12:36;;;;;;;6.3;2.3;;;;;;;15.92;79.16211;942.6121;;;;
2019/06/17 01:15:09;;;;;;;4.5;2.4;;;;;;;15.9;78.77734;942.6058;;;;
2019/06/17 01:17:50;;;;;;;3.4;2.3;;;;;;;15.72;79.18359;942.5781;;;;
2019/06/17 01:20:15;;;;;;;4.1;2.4;;;;;;;15.29;81.14844;942.5719;;;;
2019/06/17 01:22:46;;;;;;;4.7;2.3;;;;;;;15.12;82.16699;942.5902;;;;
2019/06/17 01:25:25;;;;;;;3.4;2.7;;;;;;;15.2;81.31641;942.5725;;;;
2019/06/17 01:27:51;;;;;;;3.5;2.7;;;;;;;15.25;80.81738;942.5471;;;;
2019/06/17 01:30:19;;;;;;;5.3;2.7;;;;;;;15.29;80.86035;942.4523;;;;
2019/06/17 01:32:42;;;;;;;4.5;2.6;;;;;;;15.46;80.51074;942.4899;;;;
2019/06/17 01:35:10;;;;;;;6.9;2.7;;;;;;;15.41;80.18945;942.4608;;;;
2019/06/17 01:37:43;;;;;;;5.3;2.6;;;;;;;15.46;80.24316;942.4602;;;;
2019/06/17 01:40:16;;;;;;;5.1;2.5;;;;;;;15.54;80.03906;942.4688;;;;
2019/06/17 01:42:38;;;;;;;5.6;2.6;;;;;;;15.52;79.95508;942.4625;;;;
2019/06/17 01:45:13;;;;;;;5.8;2.6;;;;;;;15.51;79.62988;942.4978;;;;
2019/06/17 01:47:41;;;;;;;3.2;2.6;;;;;;;15.39;80.04688;942.5187;;;;
2019/06/17 01:50:07;;;;;;;8.2;2.9;;;;;;;15.32;80.0918;942.6119;;;;
2019/06/17 01:52:39;;;;;;;4.4;3;;;;;;;15.21;79.83105;942.5757;;;;
2019/06/17 01:55:02;;;;;;;3.8;3;;;;;;;15.11;80.62891;942.4419;;;;
2019/06/17 01:57:36;;;;;;;5.5;2.6;;;;;;;15.3;80.2832;942.5117;;;;
2019/06/17 02:00:08;;;;;;;6.2;2.7;;;;;;;15.27;80.2334;942.4885;;;;
2019/06/17 02:02:38;;;;;;;3.2;2.7;;;;;;;15.11;79.98438;942.4587;;;;
2019/06/17 02:05:04;;;;;;;5.1;2.7;;;;;;;14.97;80.31543;942.5419;;;;
2019/06/17 02:07:37;;;;;;;4.7;2.8;;;;;;;15.03;79.64844;942.5863;;;;
2019/06/17 02:10:24;;;;;;;3.5;2.6;;;;;;;14.93;80.48145;942.5974;;;;
2019/06/17 02:12:33;;;;;;;3.3;2.4;;;;;;;14.78;80.96094;942.5658;;;;
2019/06/17 02:15:02;;;;;;;4.8;2.8;;;;;;;14.84;81.03027;942.6575;;;;
2019/06/17 02:17:28;;;;;;;3.7;2.6;;;;;;;14.83;80.48633;942.6375;;;;
2019/06/17 02:19:57;;;;;;;4.2;2.7;;;;;;;14.84;80.07324;942.6447;;;;
2019/06/17 02:22:24;;;;;;;2.7;2.4;;;;;;;14.86;79.94922;942.6301;;;;
2019/06/17 02:24:54;;;;;;;4.6;2.7;;;;;;;14.77;79.62207;942.6178;;;;
2019/06/17 02:27:30;;;;;;;4.5;2.9;;;;;;;14.58;78.98828;942.6247;;;;
2019/06/17 02:30:09;;;;;;;3.8;3;;;;;;;14.61;80.39941;942.6768;;;;
2019/06/17 02:32:35;;;;;;;2.7;2.4;;;;;;;14.75;80.0332;942.5898;;;;
2019/06/17 02:35:00;;;;;;;6.6;2.7;;;;;;;14.74;80.05469;942.5778;;;;
2019/06/17 02:37:31;;;;;;;6.2;2.8;;;;;;;14.43;79.71094;942.6058;;;;
2019/06/17 02:40:00;;;;;;;5;3;;;;;;;14.48;80.34082;942.6654;;;;
2019/06/17 02:42:35;;;;;;;8.9;2.9;;;;;;;14.47;79.64844;942.7087;;;;
2019/06/17 02:45:02;;;;;;;5.3;2.8;;;;;;;14.66;79.72852;942.621;;;;
2019/06/17 02:47:36;;;;;;;3.6;2.5;;;;;;;14.62;80.24121;942.6378;;;;
2019/06/17 02:50:04;;;;;;;3.3;2.4;;;;;;;14.45;80.09375;942.6975;;;;
2019/06/17 02:52:37;;;;;;;4.5;2.8;;;;;;;14.5;80.29883;942.6375;;;;
2019/06/17 02:55:03;;;;;;;3.4;2.5;;;;;;;14.49;80.43457;942.6086;;;;
2019/06/17 02:57:32;;;;;;;3.1;2.6;;;;;;;14.66;80.14355;942.5865;;;;
2019/06/17 03:00:02;;;;;;;4.1;2.5;;;;;;;14.54;80.2373;942.5429;;;;
2019/06/17 03:02:27;;;;;;;6;2.6;;;;;;;14.54;80.02832;942.6119;;;;
2019/06/17 03:04:59;;;;;;;5.1;3;;;;;;;14.49;79.70898;942.5444;;;;
2019/06/17 03:07:32;;;;;;;4.3;3;;;;;;;14.51;79.55078;942.6365;;;;
2019/06/17 03:09:59;;;;;;;6.2;3.7;;;;;;;14.39;79.0459;942.6735;;;;
2019/06/17 03:12:32;;;;;;;3.5;2.9;;;;;;;14.38;80.2998;942.623;;;;
2019/06/17 03:15:01;;;;;;;5.1;2.8;;;;;;;14.32;80.33594;942.5781;;;;
2019/06/17 03:17:34;;;;;;;3.4;2.8;;;;;;;14.27;80.30273;942.6131;;;;
2019/06/17 03:20:00;;;;;;;3.2;2.9;;;;;;;14.29;80.34082;942.658;;;;
2019/06/17 03:22:27;;;;;;;3.9;3.3;;;;;;;14.16;81.17969;942.5517;;;;
2019/06/17 03:25:01;;;;;;;5.9;3.3;;;;;;;13.98;82.31934;942.6254;;;;
2019/06/17 03:27:29;;;;;;;6.4;3.4;;;;;;;13.84;81.99512;942.5712;;;;
2019/06/17 03:30:02;;;;;;;3.6;3.3;;;;;;;13.87;81.40137;942.5986;;;;
2019/06/17 03:32:42;;;;;;;5.8;3.8;;;;;;;13.83;81.5;942.6273;;;;
2019/06/17 03:35:21;;;;;;;4.9;3.6;;;;;;;13.78;81.25781;942.654;;;;
2019/06/17 03:37:50;;;;;;;7.3;4;;;;;;;13.8;81.37793;942.6133;;;;
2019/06/17 03:40:29;;;;;;;5.8;3.4;;;;;;;13.87;81.76953;942.7523;;;;
2019/06/17 03:42:57;;;;;;;5.9;2.8;;;;;;;14.16;81.05469;942.7608;;;;
2019/06/17 03:45:30;;;;;;;3.8;2.7;;;;;;;14.14;80.44043;942.7247;;;;
2019/06/17 03:48:07;;;;;;;3.3;2.7;;;;;;;14.15;80.5;942.7831;;;;
2019/06/17 03:50:39;;;;;;;6.5;2.8;;;;;;;14.12;80.72363;942.6886;;;;
2019/06/17 03:53:06;;;;;;;3.9;2.8;;;;;;;14.2;80.3584;942.7528;;;;
2019/06/17 03:55:31;;;;;;;4.4;2.4;;;;;;;14.24;80.21582;942.702;;;;
2019/06/17 03:58:11;;;;;;;4.1;2.7;;;;;;;14.24;80.01953;942.698;;;;
2019/06/17 04:02:39;;;;;;;7.5;2.8;;;;;;;14.26;79.91016;942.7678;;;;
2019/06/17 04:05:11;;;;;;;4.8;2.7;;;;;;;14.3;80.07715;942.7942;;;;
2019/06/17 04:07:33;;;;;;;4.3;3;;;;;;;14.26;80.03516;942.7942;;;;
2019/06/17 04:10:03;;;;;;;4.9;3;;;;;;;14.13;80.55273;942.7383;;;;
2019/06/17 04:12:30;;;;;;;5;2.7;;;;;;;13.98;81.08789;942.7111;;;;
2019/06/17 04:14:58;;;;;;;3.7;2.9;;;;;;;13.99;80.69043;942.7391;;;;
2019/06/17 04:17:34;;;;;;;5;2.6;;;;;;;14.1;80.34082;942.7326;;;;
2019/06/17 04:20:06;;;;;;;3.9;2.4;;;;;;;14.01;80.91113;942.7248;;;;
2019/06/17 04:22:30;;;;;;;6.6;2.6;;;;;;;14.12;80.44727;942.7911;;;;
2019/06/17 04:25:02;;;;;;;5.7;2.8;;;;;;;14.21;80.1875;942.6961;;;;
2019/06/17 04:27:34;;;;;;;5.2;2.8;;;;;;;14.19;80.28809;942.801;;;;
2019/06/17 04:30:00;;;;;;;4.2;2.4;;;;;;;14.24;80.19434;942.7701;;;;
2019/06/17 04:32:32;;;;;;;3.5;2.2;;;;;;;14.31;79.48047;942.7463;;;;
2019/06/17 04:35:02;;;;;;;3.9;2.4;;;;;;;14.3;79.60547;942.6998;;;;
2019/06/17 04:37:30;;;;;;;3.4;2.4;;;;;;;14.24;80.01953;942.7277;;;;
2019/06/17 04:39:59;;;;;;;4.1;2.6;;;;;;;14.26;79.9082;942.7045;;;;
2019/06/17 04:42:31;;;;;;;4.9;2.3;;;;;;;14.28;79.72852;942.7358;;;;
2019/06/17 04:45:08;;;;;;;4.7;2.3;;;;;;;14.18;79.99805;942.639;;;;
2019/06/17 04:47:48;;;;;;;3.1;2.3;;;;;;;14.21;80.06055;942.7089;;;;
2019/06/17 04:50:18;;;;;;;3.9;2.5;;;;;;;14.28;79.60254;942.7061;;;;
2019/06/17 04:52:43;;;;;;;5.4;2.7;;;;;;;14.25;79.71191;942.5898;;;;
2019/06/17 04:55:08;;;;;;;3.5;2.6;;;;;;;14.36;79.79004;942.6934;;;;
2019/06/17 04:57:38;;;;;;;4.1;2.6;;;;;;;14.44;79.50488;942.6646;;;;
2019/06/17 05:00:11;;;;;;;4.7;2.7;;;;;;;14.43;79.53809;942.6786;;;;
2019/06/17 05:02:48;;;;;;;2.9;2;;;;;;;14.62;80.20605;942.7188;;;;
2019/06/17 05:05:41;;;;;;;4.4;2;;;;;;;15.32;76.7666;942.6672;;;;
2019/06/17 05:08:11;;;;;;;3.9;2.5;;;;;;;15.66;75.41797;942.5927;;;;
2019/06/17 05:10:43;;;;;;;5.6;2.4;;;;;;;15.64;75.10156;942.6425;;;;
2019/06/17 05:13:19;;;;;;;3.2;2;;;;;;;15.94;74.54004;942.6401;;;;
2019/06/17 05:16:00;;;;;;;3.4;2.1;;;;;;;16.33;74.17969;942.6187;;;;
2019/06/17 05:27:21;;;;;;;4.3;1.5;;;;;;;20.32;61.01855;942.5244;;;;
2019/06/17 05:30:09;;;;;;;2.6;1.6;;;;;;;20.9;58.88867;942.5248;;;;
2019/06/17 05:32:42;;;;;;;4.4;1.6;;;;;;;20.96;58.66211;942.4352;;;;
2019/06/17 05:35:05;;;;;;;6.3;1.7;;;;;;;22.18;54.50977;942.3873;;;;
2019/06/17 05:37:32;;;;;;;2.3;1.2;;;;;;;22.68;52.62305;942.4807;;;;
2019/06/17 05:40:18;;;;;;;3;1.5;;;;;;;23.04;52.03027;942.4022;;;;
2019/06/17 05:42:52;;;;;;;2.6;1.5;;;;;;;23.1;52.12012;942.3716;;;;
2019/06/17 05:45:21;;;;;;;2.9;1.6;;;;;;;23.49;51.56641;942.3739;;;;
2019/06/17 05:47:49;;;;;;;4.9;1.6;;;;;;;24.04;48.8623;942.3323;;;;
2019/06/17 05:50:21;;;;;;;4;1.6;;;;;;;24.91;47.67188;942.3162;;;;
2019/06/17 05:53:01;;;;;;;5.8;1.5;;;;;;;25.34;45.61621;942.3455;;;;
2019/06/17 05:55:31;;;;;;;3.1;1.3;;;;;;;25.53;42.31641;942.2209;;;;
2019/06/17 05:57:55;;;;;;;2.9;1.3;;;;;;;25.47;42.57031;942.2221;;;;
2019/06/17 06:00:32;;;;;;;5.6;1.2;;;;;;;25.2;44.46875;942.2481;;;;
2019/06/17 06:03:07;;;;;;;2;1;;;;;;;24.99;44.625;942.209;;;;
2019/06/17 06:05:36;;;;;;;1.7;1;;;;;;;24.85;43.06543;942.2028;;;;
2019/06/17 06:08:00;;;;;;;2.5;1;;;;;;;25.39;42.66895;942.2241;;;;
2019/06/17 06:10:33;;;;;;;2.2;0.9;;;;;;;25.17;45.18555;942.2266;;;;
2019/06/17 06:13:04;;;;;;;3.7;1;;;;;;;26.54;42.97949;942.1661;;;;
2019/06/17 06:15:31;;;;;;;1.3;1;;;;;;;26.99;38.31738;942.1194;;;;
2019/06/17 06:18:02;;;;;;;3.1;1;;;;;;;27.26;41.06738;942.1742;;;;
2019/06/17 06:20:26;;;;;;;2.8;0.9;;;;;;;27.86;36.93164;942.1105;;;;
2019/06/17 06:22:54;;;;;;;2.9;1;;;;;;;28.28;36.28809;942.0836;;;;
2019/06/17 06:25:25;;;;;;;2.6;1.1;;;;;;;27.27;39.97754;942.0984;;;;
2019/06/17 06:27:55;;;;;;;3.1;1.1;;;;;;;27.84;36.3125;942.0658;;;;
2019/06/17 06:30:24;;;;;;;1.5;0.9;;;;;;;27.71;36.65723;942.0034;;;;
2019/06/17 06:32:53;;;;;;;3.1;1;;;;;;;27.5;37.34082;942.0053;;;;
2019/06/17 06:35:21;;;;;;;2.9;0.9;;;;;;;27.65;37.08008;941.9306;;;;
2019/06/17 06:37:45;;;;;;;2.2;1;;;;;;;28.01;36.19434;941.8516;;;;
2019/06/17 06:40:17;;;;;;;4.1;1.1;;;;;;;28.42;37.03711;941.8164;;;;
2019/06/17 06:42:48;;;;;;;2.8;1;;;;;;;28.72;36.93066;941.8644;;;;
2019/06/17 06:45:23;;;;;;;4;1.2;;;;;;;29.02;35.40723;941.769;;;;
2019/06/17 06:47:53;;;;;;;3.1;1;;;;;;;29.52;35.08887;941.7606;;;;
2019/06/17 06:50:19;;;;;;;3.2;1.1;;;;;;;29.66;36.35156;941.7734;;;;
2019/06/17 06:53:00;;;;;;;3.3;1.1;;;;;;;29.37;35.51758;941.7853;;;;
2019/06/17 06:55:31;;;;;;;5.5;1.2;;;;;;;30;36.02148;941.7819;;;;
2019/06/17 06:58:00;;;;;;;3.3;1.3;;;;;;;29;37.64355;941.723;;;;
2019/06/17 07:00:28;;;;;;;4.1;1.3;;;;;;;28.42;40.30664;941.6329;;;;
2019/06/17 07:03:00;;;;;;;5.5;1.2;;;;;;;28.97;39.73633;941.6716;;;;
2019/06/17 07:05:23;;;;;;;3.8;1;;;;;;;29.48;35.8125;941.65;;;;
2019/06/17 07:07:49;;;;;;;4;1.3;;;;;;;29.88;33.91211;941.6486;;;;
2019/06/17 07:10:31;;;;;;;4;1.2;;;;;;;29.55;36.43848;941.6254;;;;
2019/06/17 07:12:55;;;;;;;8.9;1.2;;;;;;;29.42;36.17773;941.4928;;;;
2019/06/17 07:15:27;;;;;;;3.5;1.2;;;;;;;28.7;37.32129;941.4878;;;;
2019/06/17 07:17:57;;;;;;;6.8;1.4;;;;;;;29.23;37.18652;941.515;;;;
2019/06/17 07:20:34;;;;;;;4;1.1;;;;;;;29.01;38.22754;941.4462;;;;
2019/06/17 07:23:04;;;;;;;8.5;1.3;;;;;;;29.83;34.54004;941.3289;;;;
2019/06/17 07:25:37;;;;;;;2.3;1;;;;;;;30.66;35.2373;941.2854;;;;
2019/06/17 07:28:12;;;;;;;3.6;1;;;;;;;30.73;33.19922;941.2604;;;;
2019/06/17 07:30:38;;;;;;;6.9;1.2;;;;;;;30.81;32.02148;941.2683;;;;
2019/06/17 07:33:06;;;;;;;2.7;1;;;;;;;31.13;33.93359;941.2805;;;;
2019/06/17 07:35:39;;;;;;;2.7;0.9;;;;;;;31.32;32.94336;941.2347;;;;
2019/06/17 07:37:59;;;;;;;22.5;2;;;;;;;31.64;31.29004;941.1791;;;;
2019/06/17 07:40:32;;;;;;;7.4;1.1;;;;;;;32.05;31.71387;941.1241;;;;
2019/06/17 07:42:58;;;;;;;2.8;0.9;;;;;;;32.02;31.83203;941.1819;;;;
2019/06/17 07:45:42;;;;;;;3.4;0.8;;;;;;;32.32;31.34863;941.2168;;;;
2019/06/17 07:48:09;;;;;;;3.7;1;;;;;;;32.07;29.5459;941.2216;;;;
2019/06/17 07:50:34;;;;;;;11.3;1.3;;;;;;;32.01;32.44141;941.1188;;;;
2019/06/17 07:53:00;;;;;;;4.3;1;;;;;;;31.2;31.48633;941.1411;;;;
2019/06/17 07:55:34;;;;;;;2.8;1;;;;;;;32.15;31.75586;941.0985;;;;
2019/06/17 07:58:04;;;;;;;4.3;1;;;;;;;31.4;32.87695;941.0541;;;;
2019/06/17 08:00:35;;;;;;;4.8;1;;;;;;;32.41;32.41016;941.145;;;;
2019/06/17 08:03:03;;;;;;;8.6;1.1;;;;;;;31.03;34.21387;941.0552;;;;
2019/06/17 08:05:34;;;;;;;1.8;0.9;;;;;;;31.89;33.08008;940.9598;;;;
2019/06/17 08:13:53;;;;;;;9.3;1.8;;;;;;;31.78;32.56934;940.8954;;;;
2019/06/17 08:16:33;;;;;;;5;1.1;;;;;;;32.34;30.57031;940.8843;;;;
2019/06/17 08:19:01;;;;;;;9;1.3;;;;;;;32.32;33.1709;940.8792;;;;
2019/06/17 08:21:28;;;;;;;10.3;1.5;;;;;;;32.4;31.29492;940.9564;;;;
2019/06/17 08:23:52;;;;;;;25.9;2.2;;;;;;;32.22;32.75684;940.8515;;;;
2019/06/17 08:26:24;;;;;;;8.5;1.3;;;;;;;31.68;32.81348;940.8337;;;;
2019/06/17 08:28:56;;;;;;;8.8;1.1;;;;;;;32.56;30.78906;940.8804;;;;
2019/06/17 08:31:23;;;;;;;3.5;1.1;;;;;;;32.92;32.19531;940.8544;;;;
2019/06/17 08:33:52;;;;;;;5.7;1.4;;;;;;;32.68;33.20996;940.8137;;;;
2019/06/17 08:36:17;;;;;;;4.4;1;;;;;;;32.48;31.13184;940.811;;;;
2019/06/17 08:38:50;;;;;;;9.1;1.1;;;;;;;32.27;31.2373;940.7819;;;;
2019/06/17 08:41:16;;;;;;;1.9;0.9;;;;;;;32.08;32.56641;940.7534;;;;
2019/06/17 08:43:44;;;;;;;3.8;0.9;;;;;;;32.68;31.72168;940.7874;;;;
2019/06/17 08:46:17;;;;;;;3.7;1;;;;;;;32.32;31.37305;940.7816;;;;
2019/06/17 08:48:53;;;;;;;33.5;2.6;;;;;;;32.26;32.54395;940.7408;;;;
2019/06/17 08:51:26;;;;;;;2.6;1;;;;;;;32.4;31.61816;940.6847;;;;
2019/06/17 08:53:55;;;;;;;2.9;0.9;;;;;;;32.37;31.87988;940.6942;;;;
2019/06/17 08:56:30;;;;;;;4;1.6;;;;;;;31.73;33.17676;940.5517;;;;
2019/06/17 08:58:56;;;;;;;6.4;2.2;;;;;;;31.75;34.36426;940.5714;;;;
2019/06/17 09:01:26;;;;;;;4.1;1.6;;;;;;;31.62;33.62305;940.5016;;;;
2019/06/17 09:03:49;;;;;;;7.5;1.4;;;;;;;31.25;34.68457;940.5527;;;;
2019/06/17 09:06:21;;;;;;;5.1;1.2;;;;;;;31.08;35.11523;940.4894;;;;
2019/06/17 09:08:57;;;;;;;2.4;1.1;;;;;;;30.41;36.01758;940.4387;;;;
2019/06/17 09:11:30;;;;;;;8.7;4.2;;;;;;;30.27;36.86621;940.4097;;;;
2019/06/17 09:14:03;;;;;;;5.2;2;;;;;;;29.81;37.37793;940.4775;;;;
2019/06/17 09:16:35;;;;;;;3.4;1.2;;;;;;;29.27;39.17969;940.4458;;;;
2019/06/17 09:18:57;;;;;;;2.6;1.1;;;;;;;28.88;39.34766;940.4614;;;;
2019/06/17 09:21:39;;;;;;;2.4;1.3;;;;;;;28.69;39.77148;940.4451;;;;
2019/06/17 09:24:08;;;;;;;3.9;1.1;;;;;;;28.61;41.34668;940.4757;;;;
2019/06/17 09:26:42;;;;;;;3.3;1.2;;;;;;;28.53;41.82617;940.3834;;;;
2019/06/17 09:29:10;;;;;;;2.1;1.2;;;;;;;28.29;41.68457;940.3917;;;;
2019/06/17 09:31:38;;;;;;;4.7;1.5;;;;;;;27.85;42.52344;940.371;;;;
2019/06/17 09:34:12;;;;;;;5.8;1.6;;;;;;;27.76;42.91895;940.3502;;;;
2019/06/17 09:36:46;;;;;;;4.4;1.2;;;;;;;27.41;43.51367;940.3401;;;;
2019/06/17 09:39:21;;;;;;;3.7;1.2;;;;;;;27.27;45.08887;940.3621;;;;
2019/06/17 09:41:59;;;;;;;2.5;1.2;;;;;;;27.33;44.38379;940.4008;;;;
2019/06/17 09:44:33;;;;;;;3.7;1.2;;;;;;;27.35;44.13672;940.3369;;;;
2019/06/17 09:47:00;;;;;;;12.9;1.9;;;;;;;27.28;44.44922;940.2955;;;;
2019/06/17 09:49:27;;;;;;;7.2;1.6;;;;;;;27.11;42.92773;940.2433;;;;
2019/06/17 09:52:01;;;;;;;4;1.5;;;;;;;26.95;46.07617;940.225;;;;
2019/06/17 09:54:27;;;;;;;10.7;2;;;;;;;26.42;46.54395;940.2283;;;;
2019/06/17 09:57:00;;;;;;;6.1;1.5;;;;;;;26.75;44.63477;940.1997;;;;
2019/06/17 09:59:32;;;;;;;4.7;1.6;;;;;;;26.87;45.75977;940.1063;;;;
2019/06/17 10:02:00;;;;;;;14.2;1.8;;;;;;;27;47.63477;940.1867;;;;
2019/06/17 10:04:30;;;;;;;12.8;2.4;;;;;;;27.04;44.31934;940.1064;;;;
2019/06/17 10:07:02;;;;;;;3.7;1.5;;;;;;;27.08;46.6123;940.1305;;;;
2019/06/17 10:09:36;;;;;;;5.5;1.6;;;;;;;27.1;46.99316;940.0745;;;;
2019/06/17 10:12:05;;;;;;;3.8;1.5;;;;;;;26.75;46.3877;940.073;;;;
2019/06/17 10:14:40;;;;;;;5.3;1.6;;;;;;;26.83;46.15918;940.043;;;;
2019/06/17 10:17:09;;;;;;;3.7;1.5;;;;;;;26.79;46.49805;940.0316;;;;
2019/06/17 10:19:35;;;;;;;2.9;1.6;;;;;;;26.72;46.73926;940.0215;;;;
2019/06/17 10:22:06;;;;;;;4.9;1.4;;;;;;;26.71;48.17188;940.0266;;;;
2019/06/17 10:24:43;;;;;;;2.9;1.4;;;;;;;26.83;47.9248;939.9602;;;;
2019/06/17 10:27:16;;;;;;;4.5;1.7;;;;;;;26.68;49.0332;940.0014;;;;
2019/06/17 10:29:48;;;;;;;2.2;1.5;;;;;;;26.92;46.07324;939.8976;;;;
2019/06/17 10:32:18;;;;;;;3.8;1.7;;;;;;;26.85;46.2207;939.9177;;;;
2019/06/17 10:34:44;;;;;;;4;1.7;;;;;;;27.15;46.35742;939.8881;;;;
2019/06/17 10:37:24;;;;;;;4.3;1.5;;;;;;;27.07;46.31348;939.84;;;;
2019/06/17 10:39:50;;;;;;;4.5;1.7;;;;;;;27.2;46.52832;939.7329;;;;
2019/06/17 10:42:24;;;;;;;3.5;1.6;;;;;;;27.19;46.62305;939.7603;;;;
2019/06/17 10:44:55;;;;;;;4.4;1.6;;;;;;;27.13;46.28516;939.7125;;;;
2019/06/17 10:47:29;;;;;;;3.4;1.6;;;;;;;26.99;47.47852;939.7651;;;;
2019/06/17 10:50:00;;;;;;;3.1;1.6;;;;;;;26.97;48.44824;939.6982;;;;
2019/06/17 10:52:31;;;;;;;6.4;2.1;;;;;;;26.94;49.00293;939.686;;;;
2019/06/17 10:54:58;;;;;;;3.6;1.7;;;;;;;26.99;46.625;939.7037;;;;
2019/06/17 10:57:31;;;;;;;3.8;1.9;;;;;;;27.06;45.08008;939.5978;;;;
2019/06/17 11:00:03;;;;;;;5.6;1.6;;;;;;;27.15;46.06055;939.5361;;;;
2019/06/17 11:02:40;;;;;;;4.1;1.8;;;;;;;27.16;47.4375;939.5779;;;;
2019/06/17 11:05:08;;;;;;;2.8;1.9;;;;;;;27.27;46.56055;939.5809;;;;
2019/06/17 11:07:41;;;;;;;4.5;1.7;;;;;;;27.18;47.9375;939.6097;;;;
2019/06/17 11:10:12;;;;;;;4;1.8;;;;;;;27.16;47.41406;939.5689;;;;
2019/06/17 11:12:38;;;;;;;4.7;1.8;;;;;;;27.22;47.27832;939.567;;;;
2019/06/17 11:15:09;;;;;;;2.7;1.7;;;;;;;26.98;47.72656;939.4224;;;;
2019/06/17 11:17:36;;;;;;;5.7;1.8;;;;;;;27.03;48.24316;939.4406;;;;
2019/06/17 11:20:01;;;;;;;6.5;1.9;;;;;;;26.98;48.18945;939.4695;;;;
2019/06/17 11:22:37;;;;;;;4.3;1.5;;;;;;;27.27;47.85254;939.4161;;;;
2019/06/17 11:25:06;;;;;;;4;1.7;;;;;;;27.56;47.48047;939.5044;;;;
2019/06/17 11:27:33;;;;;;;4;2;;;;;;;27.59;47.45996;939.421;;;;
2019/06/17 11:30:07;;;;;;;4.6;1.6;;;;;;;27.47;48.26563;939.4447;;;;
2019/06/17 11:32:30;;;;;;;2.8;1.7;;;;;;;27.62;46.67969;939.3858;;;;
2019/06/17 11:35:09;;;;;;;4.3;1.7;;;;;;;27.46;46.35449;939.3464;;;;
2019/06/17 11:37:45;;;;;;;4.7;1.9;;;;;;;27.33;48.02441;939.2675;;;;
2019/06/17 11:40:08;;;;;;;4.1;1.8;;;;;;;27.03;48.79785;939.2977;;;;
2019/06/17 11:42:32;;;;;;;3.9;1.9;;;;;;;27.26;46.74805;939.3047;;;;
2019/06/17 11:45:01;;;;;;;8.6;2.1;;;;;;;27.55;46.32715;939.2922;;;;
2019/06/17 11:47:40;;;;;;;5;1.7;;;;;;;27.79;45.4375;939.2505;;;;
2019/06/17 11:50:08;;;;;;;6.1;1.7;;;;;;;27.87;44.63965;939.1533;;;;
2019/06/17 11:52:44;;;;;;;5.3;2;;;;;;;28.09;44.87402;939.2757;;;;
2019/06/17 11:55:20;;;;;;;12.3;2.1;;;;;;;28.05;46.21289;939.1561;;;;
2019/06/17 11:57:45;;;;;;;3.2;1.9;;;;;;;28.13;45.15234;939.1292;;;;
2019/06/17 12:00:12;;;;;;;5.8;1.9;;;;;;;28.26;44.14258;939.1962;;;;
2019/06/17 12:02:54;;;;;;;4.8;1.8;;;;;;;28.02;44.9043;939.212;;;;
2019/06/17 12:08:48;;;;;;;4.9;1.7;;;;;;;27.91;45.85449;939.1863;;;;
2019/06/17 12:11:09;;;;;;;2.5;1.9;;;;;;;27.51;46.0625;939.1375;;;;
2019/06/17 12:13:38;;;;;;;2;1.6;;;;;;;27.9;44.39355;939.1705;;;;
2019/06/17 12:16:09;;;;;;;4.6;1.9;;;;;;;27.93;46.92578;939.2139;;;;
2019/06/17 12:18:45;;;;;;;4.7;2;;;;;;;28.21;45.07715;939.2294;;;;
2019/06/17 12:21:26;;;;;;;4.7;1.9;;;;;;;28.21;45.04199;939.19;;;;
2019/06/17 12:24:10;;;;;;;4.1;1.8;;;;;;;28.3;44.31348;939.127;;;;
2019/06/17 12:26:50;;;;;;;3.9;1.9;;;;;;;28.32;45.05176;939.0551;;;;
2019/06/17 12:29:26;;;;;;;5.9;1.9;;;;;;;28.25;45.75879;939.1267;;;;
2019/06/17 12:31:57;;;;;;;2.4;1.7;;;;;;;28.01;45.12793;939.1046;;;;
2019/06/17 12:34:30;;;;;;;3.7;1.8;;;;;;;28.17;45.13281;939.1217;;;;
2019/06/17 12:37:03;;;;;;;4.6;2;;;;;;;28.42;44.69336;939.0517;;;;
2019/06/17 12:39:34;;;;;;;7.1;2.3;;;;;;;28.38;44.66602;939.0095;;;;
2019/06/17 12:42:03;;;;;;;3.9;2.1;;;;;;;28.44;45.77734;938.9958;;;;
2019/06/17 12:44:28;;;;;;;3.4;2;;;;;;;28.63;44.82129;939.0558;;;;
2019/06/17 12:47:15;;;;;;;3.3;1.9;;;;;;;28.67;43.00488;938.9841;;;;
2019/06/17 12:49:47;;;;;;;4.7;1.9;;;;;;;28.71;45.10352;938.9554;;;;
2019/06/17 12:52:20;;;;;;;14;6.1;;;;;;;28.62;44.93945;939.0217;;;;
2019/06/17 12:54:42;;;;;;;9.6;4.6;;;;;;;28.55;45.72949;938.986;;;;
2019/06/17 12:57:09;;;;;;;7.6;4.3;;;;;;;28.42;45.53711;938.9246;;;;
2019/06/17 12:59:43;;;;;;;11.7;4.4;;;;;;;28.17;46.27246;938.9211;;;;
2019/06/17 13:02:15;;;;;;;8.1;3.2;;;;;;;27.8;45.90234;938.9127;;;;
2019/06/17 13:04:46;;;;;;;9.3;4;;;;;;;27.86;46.59766;938.8494;;;;
2019/06/17 13:07:22;;;;;;;6.8;3.1;;;;;;;27.81;46.6748;938.8145;;;;
2019/06/17 13:09:52;;;;;;;3.3;1.9;;;;;;;27.77;45.8877;938.8116;;;;
2019/06/17 13:12:23;;;;;;;4.1;2.1;;;;;;;27.93;48.0293;938.8393;;;;
2019/06/17 13:14:52;;;;;;;3.4;1.9;;;;;;;27.68;46.13867;938.7664;;;;
2019/06/17 13:17:25;;;;;;;5.6;2.1;;;;;;;27.34;47.63477;938.7598;;;;
2019/06/17 13:19:57;;;;;;;4.9;2.1;;;;;;;27.34;48.25195;938.7325;;;;
2019/06/17 13:22:20;;;;;;;3.7;2;;;;;;;26.99;48.01172;938.7228;;;;
2019/06/17 13:24:47;;;;;;;4.2;2;;;;;;;27.12;46.39063;938.6672;;;;
2019/06/17 13:27:11;;;;;;;3.2;1.9;;;;;;;27.25;46.49805;938.6557;;;;
2019/06/17 13:29:43;;;;;;;7.8;2.4;;;;;;;27.19;46.78906;938.6875;;;;
2019/06/17 13:32:17;;;;;;;3.7;2;;;;;;;27.21;49.69629;938.6144;;;;
2019/06/17 13:34:50;;;;;;;3.6;1.8;;;;;;;27.12;48.19141;938.603;;;;
2019/06/17 13:37:23;;;;;;;3.1;1.9;;;;;;;27.37;47.27051;938.649;;;;
2019/06/17 13:39:50;;;;;;;4.8;1.9;;;;;;;27.51;47.83203;938.5392;;;;
2019/06/17 13:42:24;;;;;;;4;1.9;;;;;;;27.47;45.7627;938.5376;;;;
2019/06/17 13:44:57;;;;;;;3.6;1.9;;;;;;;27.07;47.65332;938.528;;;;
2019/06/17 13:47:23;;;;;;;3.5;1.9;;;;;;;27.14;47.44727;938.5432;;;;
2019/06/17 13:50:06;;;;;;;3.9;1.9;;;;;;;27.21;47.08789;938.4967;;;;
2019/06/17 13:52:32;;;;;;;6.2;2.2;;;;;;;27.18;47.08398;938.4846;;;;
2019/06/17 13:55:09;;;;;;;9.2;3.5;;;;;;;27.25;46.66406;938.538;;;;
2019/06/17 13:57:43;;;;;;;7;3;;;;;;;27.16;46.28711;938.5092;;;;
2019/06/17 14:00:03;;;;;;;9.7;3.5;;;;;;;27.16;46.75;938.4832;;;;
2019/06/17 14:02:33;;;;;;;5.5;2.4;;;;;;;27;46.5918;938.4603;;;;
2019/06/17 14:05:04;;;;;;;5.1;2;;;;;;;27.1;46.57813;938.4394;;;;
2019/06/17 14:07:46;;;;;;;4.6;1.9;;;;;;;27.04;46.99805;938.4504;;;;
2019/06/17 14:10:18;;;;;;;5.5;2.1;;;;;;;27.09;46.7793;938.451;;;;
2019/06/17 14:12:47;;;;;;;3.6;1.9;;;;;;;27.05;46.47656;938.414;;;;
2019/06/17 14:15:12;;;;;;;4.8;2;;;;;;;27;48.97363;938.4381;;;;
2019/06/17 14:17:36;;;;;;;3.6;2;;;;;;;27.06;47.35645;938.4377;;;;
2019/06/17 14:20:09;;;;;;;5;1.9;;;;;;;27.31;46.76563;938.4023;;;;
2019/06/17 14:22:43;;;;;;;5.5;1.8;;;;;;;27.3;46.36035;938.3342;;;;
2019/06/17 14:25:15;;;;;;;4.3;2;;;;;;;27.22;46.875;938.3423;;;;
2019/06/17 14:27:45;;;;;;;6.2;2.3;;;;;;;26.99;46.15137;938.3226;;;;
2019/06/17 14:30:07;;;;;;;7.5;2.5;;;;;;;26.93;49.02539;938.3233;;;;
2019/06/17 14:32:34;;;;;;;4;2.1;;;;;;;27.03;47.17578;938.373;;;;
2019/06/17 14:35:05;;;;;;;7.9;4.9;;;;;;;26.96;47.90234;938.3837;;;;
2019/06/17 14:37:41;;;;;;;6.9;2.8;;;;;;;27.03;46.5957;938.3158;;;;
2019/06/17 14:40:09;;;;;;;7.1;2.3;;;;;;;26.87;48.4248;938.3161;;;;
2019/06/17 14:42:46;;;;;;;5.2;2.2;;;;;;;26.93;47.70898;938.3847;;;;
2019/06/17 14:45:27;;;;;;;4.1;2;;;;;;;26.9;48.71387;938.4158;;;;
2019/06/17 14:47:51;;;;;;;4.7;1.8;;;;;;;26.72;47.04688;938.3703;;;;
2019/06/17 14:50:31;;;;;;;7.2;2.1;;;;;;;26.91;46.55859;938.3519;;;;
2019/06/17 14:53:06;;;;;;;5.6;2;;;;;;;26.93;46.93945;938.3886;;;;
2019/06/17 14:55:30;;;;;;;7.9;2.1;;;;;;;26.87;48.05859;938.4587;;;;
2019/06/17 14:58:02;;;;;;;4.4;2.1;;;;;;;26.69;47.19824;938.34;;;;
2019/06/17 15:00:31;;;;;;;2.9;1.8;;;;;;;26.51;46.82422;938.42;;;;
2019/06/17 15:03:04;;;;;;;4.5;2;;;;;;;26.38;48.00684;938.3226;;;;
2019/06/17 15:05:29;;;;;;;6.2;2.2;;;;;;;26.24;49.4707;938.4016;;;;
2019/06/17 15:07:54;;;;;;;5.2;2.1;;;;;;;26.29;48.10352;938.3591;;;;
2019/06/17 15:10:22;;;;;;;5.3;2;;;;;;;26.28;49.43848;938.3262;;;;